• Join FlightAware (Why Join?)
  • Login
  • US Flag 
02:13PM EDT


 

Airport Tracker/Info


-or-


 

Live Flight TrackerFlight Track Log ✈ LXJ437 ✈ 23-Jun-2013 ✈ KSBA - KASE

Flight Track Log - Related Links

Times and Time Zones

All times are in EDT time to prevent confusion due to time zone crossing. See the LXJ437 flight status page for this flight to view local times or setup timezone preferences in your user account.

Time Position Orientation Groundspeed Altitude Reporting Facility
EDT Latitude Longitude Course Direction KTS MPH feet Rate Location/Type
09:25AM 34.4272 -119.8272 126° Southeast 180 207 500  Level Los Angeles Center
09:27AM 34.3750 -119.7400 126° Southeast 254 292 3,100 2,280 Climbing Los Angeles Center
09:28AM 34.3092 -119.6950 151° Southeast 260 299 6,100 2,940 Climbing Los Angeles Center
09:29AM 34.2367 -119.6367 146° Southeast 309 356 9,100 3,240 Climbing Los Angeles Center
09:30AM 34.2031 -119.5336 111° Southeast 328 377 12,700 3,540 Climbing Los Angeles Center
09:31AM 34.1778 -119.4178 105° East 364 419 16,300 3,540 Climbing Los Angeles Center
09:32AM 34.2175 -119.2956 69° East 386 444 19,900 2,940 Climbing Los Angeles Center
09:33AM 34.2544 -119.1706 70° East 395 455 22,300 2,400 Climbing Los Angeles Center
09:34AM 34.2950 -119.0328 70° East 428 493 24,900 2,340 Climbing Los Angeles Center
09:35AM 34.3356 -118.8914 71° East 441 507 27,100 1,980 Climbing Los Angeles Center
09:36AM 34.3775 -118.7447 71° East 456 525 29,000 1,800 Climbing Los Angeles Center
09:37AM 34.4192 -118.5944 71° East 466 536 30,800 1,860 Climbing Los Angeles Center
09:38AM 34.4614 -118.4425 71° East 472 543 32,800 2,040 Climbing Los Angeles Center
09:39AM 34.5119 -118.2606 71° East 472 543 35,000 1,740 Climbing Los Angeles Center
09:40AM 34.5508 -118.1256 71° East 471 542 36,400 1,380 Climbing Los Angeles Center
09:41AM 34.6250 -117.9992 54° Northeast 462 532 37,900 1,140 Climbing Los Angeles Center
09:42AM 34.7006 -117.8719 54° Northeast 464 534 38,800 900 Climbing Los Angeles Center
09:43AM 34.7742 -117.7425 55° Northeast 468 539 39,800 900 Climbing Los Angeles Center
09:44AM 34.8481 -117.6114 55° Northeast 474 545 40,700 960 Climbing Los Angeles Center
09:45AM 34.9356 -117.4550 56° Northeast 475 547 41,800 960 Climbing Los Angeles Center
09:46AM 35.0086 -117.3261 55° Northeast 470 541 42,700 600 Climbing Los Angeles Center
09:47AM 35.0819 -117.1978 55° Northeast 467 537 43,100 180 Climbing Los Angeles Center
09:48AM 35.1581 -117.0628 55° Northeast 479 551 43,100  Level Los Angeles Center
09:49AM 35.2344 -116.9247 56° Northeast 488 562 43,100 60 Level Los Angeles Center
09:50AM 35.3128 -116.7836 56° Northeast 499 574 43,300 360 Climbing Los Angeles Center
09:51AM 35.3933 -116.6397 55° Northeast 508 585 43,900 540 Climbing Los Angeles Center
09:52AM 35.4717 -116.4983 56° Northeast 505 581 44,500 540 Climbing Los Angeles Center
09:53AM 35.5633 -116.3322 56° Northeast 493 567 45,000 240 Climbing Los Angeles Center
09:54AM 35.6403 -116.1903 56° Northeast 496 571 45,000  Level Los Angeles Center
09:55AM 35.7178 -116.0481 56° Northeast 501 577 45,000  Level Los Angeles Center
09:56AM 35.7961 -115.9067 56° Northeast 501 577 45,000  Level Los Angeles Center
09:57AM 35.8703 -115.7750 55° Northeast 500 575 45,000  Level Los Angeles Center
09:58AM 35.9628 -115.6011 57° Northeast 505 581 45,000  Level Los Angeles Center
09:59AM 36.0403 -115.4561 57° Northeast 511 588 45,000  Level Los Angeles Center
10:00AM 36.1175 -115.3117 56° Northeast 511 588 45,000  Level Los Angeles Center
10:01AM 36.1939 -115.1656 57° Northeast 511 588 45,000  Level Los Angeles Center
10:03AM 36.2711 -115.0214 56° Northeast 508 585 45,000  Level Los Angeles Center
10:04AM 36.3486 -114.8756 57° Northeast 509 586 45,000  Level Los Angeles Center
10:05AM 36.4253 -114.7289 57° Northeast 508 585 45,000  Level Los Angeles Center
10:06AM 36.5014 -114.5817 57° Northeast 509 586 45,000  Level Los Angeles Center
10:07AM 36.5936 -114.4044 57° Northeast 509 586 45,000  Level Los Angeles Center
10:08AM 36.6714 -114.2569 57° Northeast 509 586 45,000  Level Los Angeles Center
10:09AM 36.7389 -114.1250 57° Northeast 510 587 45,000  Level Los Angeles Center
10:10AM 36.8239 -113.9611 57° Northeast 507 583 45,000  Level Los Angeles Center
10:11AM 36.8906 -113.8292 58° Northeast 506 582 45,000  Level Los Angeles Center
10:12AM 36.9800 -113.6525 58° Northeast 503 579 45,000  Level Los Angeles Center
10:13AM 37.0553 -113.5058 57° Northeast 502 578 45,000  Level Los Angeles Center
10:14AM 37.1294 -113.3578 58° Northeast 503 579 45,000  Level Los Angeles Center
10:15AM 37.2039 -113.2106 58° Northeast 502 578 45,000  Level Los Angeles Center
10:16AM 37.2775 -113.0631 58° Northeast 501 577 45,000  Level Los Angeles Center
10:17AM 37.3506 -112.9167 58° Northeast 500 575 45,000  Level Los Angeles Center
10:18AM 37.4067 -112.8003 59° Northeast 500 575 45,000  Level Salt Lake Center
10:19AM 37.4794 -112.6550 58° Northeast 502 578 45,000  Level Salt Lake Center
10:20AM 37.5672 -112.4800 58° Northeast 500 575 45,000  Level Salt Lake Center
10:21AM 37.6394 -112.3339 58° Northeast 499 574 45,000  Level Salt Lake Center
10:22AM 37.7111 -112.1881 58° Northeast 494 568 45,000  Level Salt Lake Center
10:23AM 37.7836 -112.0403 58° Northeast 496 571 45,000  Level Salt Lake Center
10:24AM 37.8547 -111.8919 59° Northeast 496 571 45,000  Level Salt Lake Center
10:25AM 37.9269 -111.7425 58° Northeast 497 572 45,000  Level Salt Lake Center
10:26AM 37.9981 -111.5928 59° Northeast 498 573 45,000  Level Salt Lake Center
10:27AM 38.0700 -111.4444 58° Northeast 496 571 45,000  Level Salt Lake Center
10:28AM 38.1556 -111.2647 59° Northeast 497 572 45,000  Level Salt Lake Center
10:29AM 38.2258 -111.1142 59° Northeast 497 572 45,000  Level Salt Lake Center
10:30AM 38.2964 -110.9631 59° Northeast 497 572 45,000  Level Salt Lake Center
10:31AM 38.3628 -110.8186 60° Northeast 496 571 45,000  Level Salt Lake Center
10:32AM 38.4347 -110.6483 62° Northeast 491 565 45,000  Level Salt Lake Center
10:33AM 38.4647 -110.4836 77° East 492 566 45,000  Level Salt Lake Center
10:34AM 38.5067 -110.2956 74° East 492 566 45,000  Level Salt Lake Center
10:35AM 38.5408 -110.1339 75° East 494 568 45,000  Level Salt Lake Center
10:36AM 38.5747 -109.9728 75° East 492 566 45,000  Level Salt Lake Center
10:37AM 38.6133 -109.7825 75° East 496 571 45,000  Level Salt Lake Center
10:38AM 38.6475 -109.6206 75° East 493 567 45,000  Level Salt Lake Center
10:39AM 38.6869 -109.4297 75° East 497 572 45,000  Level Salt Lake Center
10:40AM 38.7200 -109.2667 75° East 498 573 45,000  Level Salt Lake Center
10:41AM 38.7578 -109.0772 76° East 494 568 45,000  Level Salt Lake Center
10:42AM 38.7911 -108.9153 75° East 493 567 45,000  Level Salt Lake Center
10:43AM 38.8225 -108.7533 76° East 492 566 45,000  Level Salt Lake Center
10:44AM 38.8392 -108.6678 76° East 494 568 45,000 -600 Level Denver Center
10:45AM 38.8761 -108.4781 76° East 495 570 44,100 -1,860 Descending Denver Center
10:46AM 38.9089 -108.3100 76° East 506 582 41,200 -3,120 Descending Denver Center
10:47AM 38.9469 -108.1200 76° East 494 568 37,700 -3,120 Descending Denver Center
10:48AM 38.9775 -107.9617 76° East 480 552 34,800 -3,120 Descending Denver Center
10:49AM 39.0119 -107.7803 76° East 469 540 31,300 -2,940 Descending Denver Center
10:50AM 39.0358 -107.6542 76° East 459 528 28,800 -3,120 Descending Denver Center
10:51AM 39.0739 -107.4550 76° East 451 519 24,900 -3,300 Descending Denver Center
10:52AM 39.1092 -107.3067 73° East 453 521 22,000 -1,920 Descending Denver Center
10:53AM 39.2092 -107.1867 43° Northeast 439 505 21,000 -960 Descending Denver Center
10:54AM 39.3078 -107.1267 25° Northeast 424 488 20,100 -1,440 Descending Denver Center
10:55AM 39.3986 -107.0467 34° Northeast 405 466 18,100 -2,520 Descending Denver Center
10:56AM 39.4092 -106.9133 84° East 346 398 14,900 -2,100 Descending Denver Center
10:57AM 39.3703 -106.8439 126° Southeast 266 306 13,800 -1,500 Descending Denver Center
10:58AM 39.3422 -106.9044 239° Southwest 204 235 11,800 -1,800 Descending Denver Center
10:59AM 39.3050 -106.9181 196° South 169 194 10,100 -1,680 Descending Denver Center
11:00AM 39.2697 -106.8914 150° Southeast 156 180 8,400 -960 Descending Denver Center
11:01AM 39.2322 -106.8683 155° Southeast 155 178 8,200 -240 Descending Denver Center